sensor_id;sensor_type;location;lat;lon;timestamp;P1;durP1;ratioP1;P2;durP2;ratioP2
813;SDS011;389;48.710;9.392;2023-06-22T00:02:24;11.50;;;8.03;;
813;SDS011;389;48.710;9.392;2023-06-22T00:04:50;10.63;;;7.63;;
813;SDS011;389;48.710;9.392;2023-06-22T00:07:15;11.60;;;7.80;;
813;SDS011;389;48.710;9.392;2023-06-22T00:09:41;9.77;;;8.13;;
813;SDS011;389;48.710;9.392;2023-06-22T00:12:07;10.37;;;8.07;;
813;SDS011;389;48.710;9.392;2023-06-22T00:14:33;8.37;;;6.93;;
813;SDS011;389;48.710;9.392;2023-06-22T00:16:58;8.63;;;7.73;;
813;SDS011;389;48.710;9.392;2023-06-22T00:19:24;8.70;;;7.20;;
813;SDS011;389;48.710;9.392;2023-06-22T00:21:50;10.57;;;7.60;;
813;SDS011;389;48.710;9.392;2023-06-22T00:24:18;11.00;;;7.90;;
813;SDS011;389;48.710;9.392;2023-06-22T00:26:44;11.90;;;8.43;;
813;SDS011;389;48.710;9.392;2023-06-22T00:29:10;10.53;;;8.53;;
813;SDS011;389;48.710;9.392;2023-06-22T00:31:36;9.80;;;7.77;;
813;SDS011;389;48.710;9.392;2023-06-22T00:34:01;11.43;;;8.20;;
813;SDS011;389;48.710;9.392;2023-06-22T00:36:27;10.20;;;8.20;;
813;SDS011;389;48.710;9.392;2023-06-22T00:38:52;12.17;;;8.23;;
813;SDS011;389;48.710;9.392;2023-06-22T00:41:18;10.60;;;8.53;;
813;SDS011;389;48.710;9.392;2023-06-22T00:43:44;10.93;;;8.97;;
813;SDS011;389;48.710;9.392;2023-06-22T00:46:10;12.80;;;8.20;;
813;SDS011;389;48.710;9.392;2023-06-22T00:48:36;11.73;;;8.13;;
813;SDS011;389;48.710;9.392;2023-06-22T00:51:03;11.00;;;7.80;;
813;SDS011;389;48.710;9.392;2023-06-22T00:53:28;12.13;;;8.60;;
813;SDS011;389;48.710;9.392;2023-06-22T00:55:54;11.40;;;8.73;;
813;SDS011;389;48.710;9.392;2023-06-22T00:58:21;15.50;;;8.37;;
813;SDS011;389;48.710;9.392;2023-06-22T01:00:47;12.30;;;8.43;;
813;SDS011;389;48.710;9.392;2023-06-22T01:03:13;10.37;;;8.03;;
813;SDS011;389;48.710;9.392;2023-06-22T01:05:39;12.00;;;8.80;;
813;SDS011;389;48.710;9.392;2023-06-22T01:16:44;10.20;;;8.47;;
813;SDS011;389;48.710;9.392;2023-06-22T01:19:09;9.30;;;7.43;;
813;SDS011;389;48.710;9.392;2023-06-22T01:21:59;9.30;;;8.20;;
813;SDS011;389;48.710;9.392;2023-06-22T01:24:32;11.33;;;8.30;;
813;SDS011;389;48.710;9.392;2023-06-22T01:27:15;13.43;;;8.27;;
813;SDS011;389;48.710;9.392;2023-06-22T01:29:57;12.00;;;8.93;;
813;SDS011;389;48.710;9.392;2023-06-22T01:32:33;11.20;;;8.60;;
813;SDS011;389;48.710;9.392;2023-06-22T01:35:01;13.60;;;9.20;;
813;SDS011;389;48.710;9.392;2023-06-22T01:37:28;12.70;;;8.60;;
813;SDS011;389;48.710;9.392;2023-06-22T01:39:57;11.63;;;9.13;;
813;SDS011;389;48.710;9.392;2023-06-22T01:42:24;10.43;;;8.70;;
813;SDS011;389;48.710;9.392;2023-06-22T01:44:51;10.13;;;8.27;;
813;SDS011;389;48.710;9.392;2023-06-22T01:47:18;10.33;;;8.30;;
813;SDS011;389;48.710;9.392;2023-06-22T01:49:46;11.30;;;8.70;;
813;SDS011;389;48.710;9.392;2023-06-22T01:52:11;9.33;;;7.83;;
813;SDS011;389;48.710;9.392;2023-06-22T01:54:37;12.60;;;7.70;;
813;SDS011;389;48.710;9.392;2023-06-22T01:57:05;12.13;;;8.60;;
813;SDS011;389;48.710;9.392;2023-06-22T02:02:05;10.73;;;8.27;;
813;SDS011;389;48.710;9.392;2023-06-22T02:04:46;9.50;;;8.30;;
813;SDS011;389;48.710;9.392;2023-06-22T02:07:17;10.13;;;7.77;;
813;SDS011;389;48.710;9.392;2023-06-22T02:09:45;15.50;;;7.33;;
813;SDS011;389;48.710;9.392;2023-06-22T02:12:13;9.20;;;7.63;;
813;SDS011;389;48.710;9.392;2023-06-22T02:14:43;10.80;;;7.67;;
813;SDS011;389;48.710;9.392;2023-06-22T02:17:12;10.20;;;8.47;;
813;SDS011;389;48.710;9.392;2023-06-22T02:19:41;12.07;;;9.13;;
813;SDS011;389;48.710;9.392;2023-06-22T02:22:07;14.20;;;8.77;;
813;SDS011;389;48.710;9.392;2023-06-22T02:24:32;10.73;;;8.20;;
813;SDS011;389;48.710;9.392;2023-06-22T02:26:58;11.00;;;8.90;;
813;SDS011;389;48.710;9.392;2023-06-22T02:29:24;10.67;;;8.83;;
813;SDS011;389;48.710;9.392;2023-06-22T02:31:50;12.83;;;8.50;;
813;SDS011;389;48.710;9.392;2023-06-22T02:34:16;13.20;;;8.80;;
813;SDS011;389;48.710;9.392;2023-06-22T02:36:46;10.83;;;8.80;;
813;SDS011;389;48.710;9.392;2023-06-22T02:39:19;13.30;;;8.40;;
813;SDS011;389;48.710;9.392;2023-06-22T02:41:47;10.17;;;8.53;;
813;SDS011;389;48.710;9.392;2023-06-22T02:44:17;10.73;;;8.90;;
813;SDS011;389;48.710;9.392;2023-06-22T02:46:45;11.00;;;8.40;;
813;SDS011;389;48.710;9.392;2023-06-22T02:49:11;11.23;;;9.00;;
813;SDS011;389;48.710;9.392;2023-06-22T02:51:45;13.63;;;8.60;;
813;SDS011;389;48.710;9.392;2023-06-22T02:54:12;10.97;;;7.97;;
813;SDS011;389;48.710;9.392;2023-06-22T02:56:38;10.83;;;8.10;;
813;SDS011;389;48.710;9.392;2023-06-22T02:59:05;9.83;;;8.10;;
813;SDS011;389;48.710;9.392;2023-06-22T03:01:31;10.00;;;7.80;;
813;SDS011;389;48.710;9.392;2023-06-22T03:04:02;13.03;;;8.97;;
813;SDS011;389;48.710;9.392;2023-06-22T03:06:29;10.60;;;8.90;;
813;SDS011;389;48.710;9.392;2023-06-22T03:09:02;11.13;;;8.20;;
813;SDS011;389;48.710;9.392;2023-06-22T03:11:30;10.20;;;8.30;;
813;SDS011;389;48.710;9.392;2023-06-22T03:13:56;10.13;;;8.33;;
813;SDS011;389;48.710;9.392;2023-06-22T03:16:21;8.90;;;7.27;;
813;SDS011;389;48.710;9.392;2023-06-22T03:18:47;12.13;;;8.30;;
813;SDS011;389;48.710;9.392;2023-06-22T03:21:13;10.60;;;8.03;;
813;SDS011;389;48.710;9.392;2023-06-22T03:23:40;9.40;;;7.50;;
813;SDS011;389;48.710;9.392;2023-06-22T03:26:06;10.10;;;8.40;;
813;SDS011;389;48.710;9.392;2023-06-22T03:28:31;9.67;;;7.80;;
813;SDS011;389;48.710;9.392;2023-06-22T03:30:57;11.13;;;8.00;;
813;SDS011;389;48.710;9.392;2023-06-22T03:33:23;12.27;;;8.20;;
813;SDS011;389;48.710;9.392;2023-06-22T03:35:49;10.70;;;8.43;;
813;SDS011;389;48.710;9.392;2023-06-22T03:38:15;11.40;;;8.87;;
813;SDS011;389;48.710;9.392;2023-06-22T03:40:42;10.20;;;9.00;;
813;SDS011;389;48.710;9.392;2023-06-22T03:43:07;13.23;;;8.90;;
813;SDS011;389;48.710;9.392;2023-06-22T03:45:33;11.93;;;9.10;;
813;SDS011;389;48.710;9.392;2023-06-22T03:47:58;9.70;;;8.13;;
813;SDS011;389;48.710;9.392;2023-06-22T03:50:25;12.20;;;9.00;;
813;SDS011;389;48.710;9.392;2023-06-22T03:52:50;15.90;;;9.87;;
813;SDS011;389;48.710;9.392;2023-06-22T03:55:17;11.20;;;8.63;;
813;SDS011;389;48.710;9.392;2023-06-22T03:57:44;10.33;;;8.63;;
813;SDS011;389;48.710;9.392;2023-06-22T04:00:10;10.60;;;8.90;;
813;SDS011;389;48.710;9.392;2023-06-22T04:02:36;11.87;;;8.70;;
813;SDS011;389;48.710;9.392;2023-06-22T04:05:02;11.13;;;8.77;;
813;SDS011;389;48.710;9.392;2023-06-22T04:07:27;12.20;;;9.13;;
813;SDS011;389;48.710;9.392;2023-06-22T04:09:53;12.00;;;9.33;;
813;SDS011;389;48.710;9.392;2023-06-22T04:12:18;13.10;;;8.90;;
813;SDS011;389;48.710;9.392;2023-06-22T04:14:44;12.43;;;8.10;;
813;SDS011;389;48.710;9.392;2023-06-22T04:17:10;9.20;;;8.13;;
813;SDS011;389;48.710;9.392;2023-06-22T04:19:39;12.70;;;9.03;;
813;SDS011;389;48.710;9.392;2023-06-22T04:22:04;10.43;;;9.17;;
813;SDS011;389;48.710;9.392;2023-06-22T04:24:32;10.80;;;7.83;;
813;SDS011;389;48.710;9.392;2023-06-22T04:26:58;11.33;;;8.97;;
813;SDS011;389;48.710;9.392;2023-06-22T04:29:27;11.40;;;9.03;;
813;SDS011;389;48.710;9.392;2023-06-22T04:31:57;19.33;;;14.03;;
813;SDS011;389;48.710;9.392;2023-06-22T04:34:23;12.57;;;8.77;;
813;SDS011;389;48.710;9.392;2023-06-22T04:36:51;11.37;;;8.40;;
813;SDS011;389;48.710;9.392;2023-06-22T04:39:17;13.23;;;8.80;;
813;SDS011;389;48.710;9.392;2023-06-22T04:41:44;12.77;;;8.70;;
813;SDS011;389;48.710;9.392;2023-06-22T04:44:10;13.83;;;9.40;;
813;SDS011;389;48.710;9.392;2023-06-22T04:46:36;11.20;;;8.50;;
813;SDS011;389;48.710;9.392;2023-06-22T04:51:36;13.80;;;9.17;;
813;SDS011;389;48.710;9.392;2023-06-22T04:54:03;14.13;;;8.83;;
813;SDS011;389;48.710;9.392;2023-06-22T04:56:30;11.23;;;9.20;;
813;SDS011;389;48.710;9.392;2023-06-22T04:58:56;13.03;;;9.20;;
813;SDS011;389;48.710;9.392;2023-06-22T05:01:22;10.10;;;8.33;;
813;SDS011;389;48.710;9.392;2023-06-22T05:03:50;11.30;;;8.70;;
813;SDS011;389;48.710;9.392;2023-06-22T05:06:20;13.57;;;8.30;;
813;SDS011;389;48.710;9.392;2023-06-22T05:08:46;10.73;;;7.73;;
813;SDS011;389;48.710;9.392;2023-06-22T05:11:12;9.90;;;7.90;;
813;SDS011;389;48.710;9.392;2023-06-22T05:13:37;12.53;;;7.57;;
813;SDS011;389;48.710;9.392;2023-06-22T05:16:03;12.40;;;6.87;;
813;SDS011;389;48.710;9.392;2023-06-22T05:18:30;11.00;;;7.90;;
813;SDS011;389;48.710;9.392;2023-06-22T05:20:56;10.53;;;7.87;;
813;SDS011;389;48.710;9.392;2023-06-22T05:23:22;9.37;;;6.97;;
813;SDS011;389;48.710;9.392;2023-06-22T05:25:48;13.97;;;7.50;;
813;SDS011;389;48.710;9.392;2023-06-22T05:28:14;12.50;;;7.73;;
813;SDS011;389;48.710;9.392;2023-06-22T05:30:39;8.80;;;7.30;;
813;SDS011;389;48.710;9.392;2023-06-22T05:33:05;10.27;;;7.50;;
813;SDS011;389;48.710;9.392;2023-06-22T05:35:30;8.47;;;6.80;;
813;SDS011;389;48.710;9.392;2023-06-22T05:37:56;9.00;;;7.27;;
813;SDS011;389;48.710;9.392;2023-06-22T05:40:22;12.20;;;7.43;;
813;SDS011;389;48.710;9.392;2023-06-22T05:42:47;8.33;;;6.80;;
813;SDS011;389;48.710;9.392;2023-06-22T05:45:13;8.10;;;6.70;;
813;SDS011;389;48.710;9.392;2023-06-22T05:47:38;8.63;;;7.00;;
813;SDS011;389;48.710;9.392;2023-06-22T05:50:05;12.73;;;6.53;;
813;SDS011;389;48.710;9.392;2023-06-22T05:52:33;10.80;;;6.37;;
813;SDS011;389;48.710;9.392;2023-06-22T05:54:59;8.27;;;6.03;;
813;SDS011;389;48.710;9.392;2023-06-22T05:57:25;7.97;;;5.70;;
813;SDS011;389;48.710;9.392;2023-06-22T05:59:50;6.73;;;6.03;;
813;SDS011;389;48.710;9.392;2023-06-22T06:02:16;9.07;;;5.20;;
813;SDS011;389;48.710;9.392;2023-06-22T06:04:42;6.83;;;6.07;;
813;SDS011;389;48.710;9.392;2023-06-22T06:07:07;6.87;;;5.20;;
813;SDS011;389;48.710;9.392;2023-06-22T06:09:33;6.47;;;5.20;;
813;SDS011;389;48.710;9.392;2023-06-22T06:11:59;6.10;;;5.50;;
813;SDS011;389;48.710;9.392;2023-06-22T06:14:28;5.17;;;4.67;;
813;SDS011;389;48.710;9.392;2023-06-22T06:16:54;5.70;;;4.83;;
813;SDS011;389;48.710;9.392;2023-06-22T06:19:20;7.20;;;5.10;;
813;SDS011;389;48.710;9.392;2023-06-22T06:21:45;6.80;;;5.80;;
813;SDS011;389;48.710;9.392;2023-06-22T06:24:11;7.40;;;5.00;;
813;SDS011;389;48.710;9.392;2023-06-22T06:26:37;7.50;;;4.90;;
813;SDS011;389;48.710;9.392;2023-06-22T06:29:02;5.73;;;3.90;;
813;SDS011;389;48.710;9.392;2023-06-22T06:31:28;5.63;;;4.07;;
813;SDS011;389;48.710;9.392;2023-06-22T06:33:54;5.03;;;4.13;;
813;SDS011;389;48.710;9.392;2023-06-22T06:36:19;5.27;;;4.40;;
813;SDS011;389;48.710;9.392;2023-06-22T06:38:45;6.50;;;4.50;;
813;SDS011;389;48.710;9.392;2023-06-22T06:41:13;6.27;;;4.97;;
813;SDS011;389;48.710;9.392;2023-06-22T06:43:40;6.43;;;4.90;;
813;SDS011;389;48.710;9.392;2023-06-22T06:46:07;6.90;;;4.50;;
813;SDS011;389;48.710;9.392;2023-06-22T06:48:33;6.53;;;5.13;;
813;SDS011;389;48.710;9.392;2023-06-22T06:50:59;9.27;;;4.50;;
813;SDS011;389;48.710;9.392;2023-06-22T06:53:24;5.57;;;4.43;;
813;SDS011;389;48.710;9.392;2023-06-22T06:55:50;7.53;;;4.80;;
813;SDS011;389;48.710;9.392;2023-06-22T06:58:15;5.97;;;5.30;;
813;SDS011;389;48.710;9.392;2023-06-22T07:00:41;5.53;;;4.10;;
813;SDS011;389;48.710;9.392;2023-06-22T07:03:08;6.03;;;4.50;;
813;SDS011;389;48.710;9.392;2023-06-22T07:05:34;4.60;;;4.20;;
813;SDS011;389;48.710;9.392;2023-06-22T07:08:00;4.73;;;4.20;;
813;SDS011;389;48.710;9.392;2023-06-22T07:10:26;6.90;;;5.00;;
813;SDS011;389;48.710;9.392;2023-06-22T07:12:52;5.90;;;4.87;;
813;SDS011;389;48.710;9.392;2023-06-22T07:15:17;6.37;;;4.27;;
813;SDS011;389;48.710;9.392;2023-06-22T07:17:43;5.20;;;4.10;;
813;SDS011;389;48.710;9.392;2023-06-22T07:20:08;6.07;;;4.23;;
813;SDS011;389;48.710;9.392;2023-06-22T07:22:36;8.67;;;4.80;;
813;SDS011;389;48.710;9.392;2023-06-22T07:25:06;5.10;;;4.17;;
813;SDS011;389;48.710;9.392;2023-06-22T07:27:39;4.50;;;4.10;;
813;SDS011;389;48.710;9.392;2023-06-22T07:30:10;10.80;;;4.67;;
813;SDS011;389;48.710;9.392;2023-06-22T07:32:36;7.07;;;4.37;;
813;SDS011;389;48.710;9.392;2023-06-22T07:35:02;8.60;;;4.40;;
813;SDS011;389;48.710;9.392;2023-06-22T07:37:29;6.60;;;4.60;;
813;SDS011;389;48.710;9.392;2023-06-22T07:39:55;7.47;;;4.33;;
813;SDS011;389;48.710;9.392;2023-06-22T07:42:36;5.40;;;3.97;;
813;SDS011;389;48.710;9.392;2023-06-22T07:45:02;8.10;;;4.73;;
813;SDS011;389;48.710;9.392;2023-06-22T07:47:29;7.43;;;4.43;;
813;SDS011;389;48.710;9.392;2023-06-22T07:49:55;6.77;;;4.50;;
813;SDS011;389;48.710;9.392;2023-06-22T07:52:23;6.23;;;4.17;;
813;SDS011;389;48.710;9.392;2023-06-22T07:54:50;5.60;;;4.60;;
813;SDS011;389;48.710;9.392;2023-06-22T07:57:16;9.00;;;4.63;;
813;SDS011;389;48.710;9.392;2023-06-22T07:59:41;7.17;;;4.10;;
813;SDS011;389;48.710;9.392;2023-06-22T08:02:07;11.50;;;5.10;;
813;SDS011;389;48.710;9.392;2023-06-22T08:04:34;9.73;;;4.70;;
813;SDS011;389;48.710;9.392;2023-06-22T08:07:00;9.20;;;4.97;;
813;SDS011;389;48.710;9.392;2023-06-22T08:09:28;8.70;;;4.80;;
813;SDS011;389;48.710;9.392;2023-06-22T08:11:54;7.73;;;4.33;;
813;SDS011;389;48.710;9.392;2023-06-22T08:14:21;6.83;;;4.50;;
813;SDS011;389;48.710;9.392;2023-06-22T08:16:48;7.40;;;4.40;;
813;SDS011;389;48.710;9.392;2023-06-22T08:19:13;11.00;;;5.20;;
813;SDS011;389;48.710;9.392;2023-06-22T08:21:39;5.80;;;4.10;;
813;SDS011;389;48.710;9.392;2023-06-22T08:24:05;6.93;;;5.07;;
813;SDS011;389;48.710;9.392;2023-06-22T08:26:32;7.87;;;5.07;;
813;SDS011;389;48.710;9.392;2023-06-22T08:29:01;6.60;;;4.87;;
813;SDS011;389;48.710;9.392;2023-06-22T08:31:27;8.37;;;4.67;;
813;SDS011;389;48.710;9.392;2023-06-22T08:33:52;9.80;;;4.60;;
813;SDS011;389;48.710;9.392;2023-06-22T08:36:18;10.30;;;5.27;;
813;SDS011;389;48.710;9.392;2023-06-22T08:38:43;9.60;;;4.73;;
813;SDS011;389;48.710;9.392;2023-06-22T08:41:09;6.53;;;4.70;;
813;SDS011;389;48.710;9.392;2023-06-22T08:43:46;6.93;;;4.70;;
813;SDS011;389;48.710;9.392;2023-06-22T08:46:12;7.87;;;5.20;;
813;SDS011;389;48.710;9.392;2023-06-22T08:48:38;10.97;;;5.13;;
813;SDS011;389;48.710;9.392;2023-06-22T08:51:04;9.67;;;5.50;;
813;SDS011;389;48.710;9.392;2023-06-22T08:53:29;8.37;;;5.63;;
813;SDS011;389;48.710;9.392;2023-06-22T08:55:55;13.53;;;5.97;;
813;SDS011;389;48.710;9.392;2023-06-22T08:58:20;7.15;;;5.15;;
813;SDS011;389;48.710;9.392;2023-06-22T09:00:46;9.23;;;5.10;;
813;SDS011;389;48.710;9.392;2023-06-22T09:03:12;13.98;;;6.00;;
813;SDS011;389;48.710;9.392;2023-06-22T09:05:38;7.88;;;5.28;;
813;SDS011;389;48.710;9.392;2023-06-22T09:08:04;9.27;;;5.53;;
813;SDS011;389;48.710;9.392;2023-06-22T09:10:30;6.65;;;5.88;;
813;SDS011;389;48.710;9.392;2023-06-22T09:12:56;7.18;;;5.32;;
813;SDS011;389;48.710;9.392;2023-06-22T09:15:22;8.43;;;6.03;;
813;SDS011;389;48.710;9.392;2023-06-22T09:17:47;7.18;;;5.72;;
813;SDS011;389;48.710;9.392;2023-06-22T09:20:13;6.60;;;5.50;;
813;SDS011;389;48.710;9.392;2023-06-22T09:22:39;6.47;;;5.88;;
813;SDS011;389;48.710;9.392;2023-06-22T09:25:05;7.28;;;5.47;;
813;SDS011;389;48.710;9.392;2023-06-22T09:27:31;7.53;;;5.70;;
813;SDS011;389;48.710;9.392;2023-06-22T09:29:56;9.23;;;5.70;;
813;SDS011;389;48.710;9.392;2023-06-22T09:32:23;7.53;;;5.60;;
813;SDS011;389;48.710;9.392;2023-06-22T09:34:50;6.05;;;5.45;;
813;SDS011;389;48.710;9.392;2023-06-22T09:37:15;9.27;;;6.13;;
813;SDS011;389;48.710;9.392;2023-06-22T09:39:41;7.65;;;5.85;;
813;SDS011;389;48.710;9.392;2023-06-22T09:42:07;7.25;;;6.18;;
813;SDS011;389;48.710;9.392;2023-06-22T09:44:33;9.05;;;5.55;;
813;SDS011;389;48.710;9.392;2023-06-22T09:46:58;8.80;;;5.63;;
813;SDS011;389;48.710;9.392;2023-06-22T09:49:24;8.15;;;5.93;;
813;SDS011;389;48.710;9.392;2023-06-22T09:51:50;10.50;;;6.40;;
813;SDS011;389;48.710;9.392;2023-06-22T09:54:16;7.90;;;5.53;;
813;SDS011;389;48.710;9.392;2023-06-22T09:56:41;7.00;;;6.07;;
813;SDS011;389;48.710;9.392;2023-06-22T09:59:07;9.20;;;6.18;;
813;SDS011;389;48.710;9.392;2023-06-22T10:01:32;9.65;;;6.53;;
813;SDS011;389;48.710;9.392;2023-06-22T10:03:59;9.75;;;6.65;;
813;SDS011;389;48.710;9.392;2023-06-22T10:06:25;8.43;;;6.70;;
813;SDS011;389;48.710;9.392;2023-06-22T10:08:50;9.85;;;7.57;;
813;SDS011;389;48.710;9.392;2023-06-22T10:11:16;8.55;;;6.97;;
813;SDS011;389;48.710;9.392;2023-06-22T10:13:42;8.38;;;6.88;;
813;SDS011;389;48.710;9.392;2023-06-22T10:16:08;11.10;;;6.83;;
813;SDS011;389;48.710;9.392;2023-06-22T10:18:33;10.00;;;7.18;;
813;SDS011;389;48.710;9.392;2023-06-22T10:20:59;8.50;;;6.50;;
813;SDS011;389;48.710;9.392;2023-06-22T10:23:25;11.40;;;6.57;;
813;SDS011;389;48.710;9.392;2023-06-22T10:25:50;11.65;;;7.07;;
813;SDS011;389;48.710;9.392;2023-06-22T10:28:16;8.32;;;6.88;;
813;SDS011;389;48.710;9.392;2023-06-22T10:30:43;10.88;;;6.20;;
813;SDS011;389;48.710;9.392;2023-06-22T10:33:09;10.55;;;6.90;;
813;SDS011;389;48.710;9.392;2023-06-22T10:35:35;9.85;;;6.57;;
813;SDS011;389;48.710;9.392;2023-06-22T10:38:02;9.25;;;7.07;;
813;SDS011;389;48.710;9.392;2023-06-22T10:40:28;6.63;;;6.00;;
813;SDS011;389;48.710;9.392;2023-06-22T10:42:54;8.20;;;6.32;;
813;SDS011;389;48.710;9.392;2023-06-22T10:45:19;7.88;;;6.20;;
813;SDS011;389;48.710;9.392;2023-06-22T10:47:45;10.13;;;6.45;;
813;SDS011;389;48.710;9.392;2023-06-22T10:50:11;8.73;;;6.68;;
813;SDS011;389;48.710;9.392;2023-06-22T10:52:37;14.13;;;7.05;;
813;SDS011;389;48.710;9.392;2023-06-22T10:55:03;9.55;;;6.22;;
813;SDS011;389;48.710;9.392;2023-06-22T10:57:29;8.05;;;6.65;;
813;SDS011;389;48.710;9.392;2023-06-22T10:59:54;10.13;;;6.63;;
813;SDS011;389;48.710;9.392;2023-06-22T11:02:20;8.80;;;6.53;;
813;SDS011;389;48.710;9.392;2023-06-22T11:04:45;8.43;;;6.72;;
813;SDS011;389;48.710;9.392;2023-06-22T11:07:12;9.68;;;6.85;;
813;SDS011;389;48.710;9.392;2023-06-22T11:09:38;7.43;;;6.70;;
813;SDS011;389;48.710;9.392;2023-06-22T11:12:04;8.07;;;5.90;;
813;SDS011;389;48.710;9.392;2023-06-22T11:14:31;9.30;;;6.88;;
813;SDS011;389;48.710;9.392;2023-06-22T11:16:58;9.20;;;6.03;;
813;SDS011;389;48.710;9.392;2023-06-22T11:19:24;8.50;;;6.28;;
813;SDS011;389;48.710;9.392;2023-06-22T11:21:49;12.65;;;7.50;;
813;SDS011;389;48.710;9.392;2023-06-22T11:24:15;7.00;;;6.15;;
813;SDS011;389;48.710;9.392;2023-06-22T11:26:41;9.43;;;5.93;;
813;SDS011;389;48.710;9.392;2023-06-22T11:29:07;8.60;;;6.22;;
813;SDS011;389;48.710;9.392;2023-06-22T11:31:33;11.68;;;7.40;;
813;SDS011;389;48.710;9.392;2023-06-22T11:33:59;12.02;;;6.70;;
813;SDS011;389;48.710;9.392;2023-06-22T11:36:25;8.30;;;6.38;;
813;SDS011;389;48.710;9.392;2023-06-22T11:38:51;7.70;;;6.90;;
813;SDS011;389;48.710;9.392;2023-06-22T11:41:17;7.07;;;6.38;;
813;SDS011;389;48.710;9.392;2023-06-22T11:43:42;10.10;;;6.40;;
813;SDS011;389;48.710;9.392;2023-06-22T11:46:08;11.13;;;6.70;;
813;SDS011;389;48.710;9.392;2023-06-22T11:48:36;10.52;;;6.70;;
813;SDS011;389;48.710;9.392;2023-06-22T11:51:02;9.82;;;6.47;;
813;SDS011;389;48.710;9.392;2023-06-22T11:53:28;9.05;;;6.40;;
813;SDS011;389;48.710;9.392;2023-06-22T11:55:54;6.53;;;5.93;;
813;SDS011;389;48.710;9.392;2023-06-22T11:58:20;11.55;;;7.38;;
813;SDS011;389;48.710;9.392;2023-06-22T12:00:47;10.32;;;6.32;;
813;SDS011;389;48.710;9.392;2023-06-22T12:03:13;7.40;;;6.55;;
813;SDS011;389;48.710;9.392;2023-06-22T12:05:40;12.23;;;6.72;;
813;SDS011;389;48.710;9.392;2023-06-22T12:08:06;8.15;;;6.07;;
813;SDS011;389;48.710;9.392;2023-06-22T12:10:32;8.63;;;6.65;;
813;SDS011;389;48.710;9.392;2023-06-22T12:12:57;10.82;;;6.38;;
813;SDS011;389;48.710;9.392;2023-06-22T12:15:24;10.13;;;6.47;;
813;SDS011;389;48.710;9.392;2023-06-22T12:17:50;8.32;;;6.43;;
813;SDS011;389;48.710;9.392;2023-06-22T12:20:16;11.65;;;6.97;;
813;SDS011;389;48.710;9.392;2023-06-22T12:22:43;9.13;;;6.85;;
813;SDS011;389;48.710;9.392;2023-06-22T12:25:08;10.27;;;7.32;;
813;SDS011;389;48.710;9.392;2023-06-22T12:27:35;14.30;;;7.05;;
813;SDS011;389;48.710;9.392;2023-06-22T12:30:01;10.57;;;6.50;;
813;SDS011;389;48.710;9.392;2023-06-22T12:32:27;11.30;;;6.25;;
813;SDS011;389;48.710;9.392;2023-06-22T12:35:00;8.32;;;6.25;;
813;SDS011;389;48.710;9.392;2023-06-22T12:37:26;7.60;;;6.13;;
813;SDS011;389;48.710;9.392;2023-06-22T12:39:53;12.85;;;7.90;;
813;SDS011;389;48.710;9.392;2023-06-22T12:42:19;11.20;;;7.18;;
813;SDS011;389;48.710;9.392;2023-06-22T12:44:46;11.77;;;7.10;;
813;SDS011;389;48.710;9.392;2023-06-22T12:47:11;12.32;;;6.25;;
813;SDS011;389;48.710;9.392;2023-06-22T12:49:38;9.52;;;6.45;;
813;SDS011;389;48.710;9.392;2023-06-22T12:52:08;11.55;;;6.57;;
813;SDS011;389;48.710;9.392;2023-06-22T12:54:35;11.55;;;6.13;;
813;SDS011;389;48.710;9.392;2023-06-22T12:57:01;9.00;;;6.30;;
813;SDS011;389;48.710;9.392;2023-06-22T12:59:27;10.15;;;5.70;;
813;SDS011;389;48.710;9.392;2023-06-22T13:01:52;13.05;;;6.82;;
813;SDS011;389;48.710;9.392;2023-06-22T13:04:19;11.25;;;6.60;;
813;SDS011;389;48.710;9.392;2023-06-22T13:06:46;11.50;;;6.18;;
813;SDS011;389;48.710;9.392;2023-06-22T13:09:13;10.80;;;6.68;;
813;SDS011;389;48.710;9.392;2023-06-22T13:11:39;9.27;;;6.15;;
813;SDS011;389;48.710;9.392;2023-06-22T13:14:05;8.40;;;6.78;;
813;SDS011;389;48.710;9.392;2023-06-22T13:16:31;15.02;;;6.82;;
813;SDS011;389;48.710;9.392;2023-06-22T13:18:56;11.13;;;6.30;;
813;SDS011;389;48.710;9.392;2023-06-22T13:21:22;8.52;;;5.80;;
813;SDS011;389;48.710;9.392;2023-06-22T13:23:47;7.75;;;6.38;;
813;SDS011;389;48.710;9.392;2023-06-22T13:26:13;7.93;;;6.43;;
813;SDS011;389;48.710;9.392;2023-06-22T13:28:39;9.75;;;6.75;;
813;SDS011;389;48.710;9.392;2023-06-22T13:31:04;8.68;;;6.30;;
813;SDS011;389;48.710;9.392;2023-06-22T13:33:30;11.15;;;7.55;;
813;SDS011;389;48.710;9.392;2023-06-22T13:35:56;11.95;;;5.95;;
813;SDS011;389;48.710;9.392;2023-06-22T13:38:21;13.35;;;5.70;;
813;SDS011;389;48.710;9.392;2023-06-22T13:40:47;8.07;;;6.30;;
813;SDS011;389;48.710;9.392;2023-06-22T13:43:13;7.78;;;6.07;;
813;SDS011;389;48.710;9.392;2023-06-22T13:45:39;8.95;;;5.40;;
813;SDS011;389;48.710;9.392;2023-06-22T13:48:17;10.52;;;5.60;;
813;SDS011;389;48.710;9.392;2023-06-22T13:50:43;11.68;;;5.85;;
813;SDS011;389;48.710;9.392;2023-06-22T13:53:09;10.48;;;6.20;;
813;SDS011;389;48.710;9.392;2023-06-22T13:55:34;7.15;;;5.45;;
813;SDS011;389;48.710;9.392;2023-06-22T13:58:00;10.63;;;5.68;;
813;SDS011;389;48.710;9.392;2023-06-22T14:00:25;11.35;;;6.05;;
813;SDS011;389;48.710;9.392;2023-06-22T14:02:52;8.90;;;5.60;;
813;SDS011;389;48.710;9.392;2023-06-22T14:05:19;10.60;;;5.40;;
813;SDS011;389;48.710;9.392;2023-06-22T14:07:45;6.80;;;4.78;;
813;SDS011;389;48.710;9.392;2023-06-22T14:10:10;8.02;;;4.90;;
813;SDS011;389;48.710;9.392;2023-06-22T14:12:36;7.85;;;5.38;;
813;SDS011;389;48.710;9.392;2023-06-22T14:15:02;12.48;;;6.03;;
813;SDS011;389;48.710;9.392;2023-06-22T14:17:27;8.05;;;5.20;;
813;SDS011;389;48.710;9.392;2023-06-22T14:19:53;9.50;;;5.22;;
813;SDS011;389;48.710;9.392;2023-06-22T14:22:19;7.35;;;5.75;;
813;SDS011;389;48.710;9.392;2023-06-22T14:24:45;8.00;;;4.93;;
813;SDS011;389;48.710;9.392;2023-06-22T14:27:13;8.35;;;5.60;;
813;SDS011;389;48.710;9.392;2023-06-22T14:29:39;8.10;;;5.03;;
813;SDS011;389;48.710;9.392;2023-06-22T14:32:05;12.10;;;5.22;;
813;SDS011;389;48.710;9.392;2023-06-22T14:34:31;8.05;;;5.32;;
813;SDS011;389;48.710;9.392;2023-06-22T14:36:57;11.52;;;6.00;;
813;SDS011;389;48.710;9.392;2023-06-22T14:39:23;9.70;;;5.13;;
813;SDS011;389;48.710;9.392;2023-06-22T14:41:49;8.13;;;5.65;;
813;SDS011;389;48.710;9.392;2023-06-22T14:44:16;11.20;;;5.18;;
813;SDS011;389;48.710;9.392;2023-06-22T14:46:42;9.32;;;5.50;;
813;SDS011;389;48.710;9.392;2023-06-22T14:49:07;10.10;;;5.78;;
813;SDS011;389;48.710;9.392;2023-06-22T14:51:34;8.23;;;6.00;;
813;SDS011;389;48.710;9.392;2023-06-22T14:54:00;10.60;;;5.47;;
813;SDS011;389;48.710;9.392;2023-06-22T14:56:25;6.55;;;5.28;;
813;SDS011;389;48.710;9.392;2023-06-22T14:58:51;9.50;;;6.00;;
813;SDS011;389;48.710;9.392;2023-06-22T15:01:17;10.73;;;6.03;;
813;SDS011;389;48.710;9.392;2023-06-22T15:03:43;11.10;;;5.80;;
813;SDS011;389;48.710;9.392;2023-06-22T15:06:09;7.38;;;5.63;;
813;SDS011;389;48.710;9.392;2023-06-22T15:08:37;10.48;;;5.93;;
813;SDS011;389;48.710;9.392;2023-06-22T15:11:03;10.47;;;6.57;;
813;SDS011;389;48.710;9.392;2023-06-22T15:13:32;7.63;;;5.32;;
813;SDS011;389;48.710;9.392;2023-06-22T15:16:01;8.70;;;5.32;;
813;SDS011;389;48.710;9.392;2023-06-22T15:18:30;9.65;;;4.93;;
813;SDS011;389;48.710;9.392;2023-06-22T15:20:58;6.22;;;4.95;;
813;SDS011;389;48.710;9.392;2023-06-22T15:23:26;7.50;;;5.50;;
813;SDS011;389;48.710;9.392;2023-06-22T15:25:53;5.80;;;5.00;;
813;SDS011;389;48.710;9.392;2023-06-22T15:28:23;8.55;;;4.03;;
813;SDS011;389;48.710;9.392;2023-06-22T15:30:49;8.93;;;3.85;;
813;SDS011;389;48.710;9.392;2023-06-22T15:33:15;5.75;;;4.25;;
813;SDS011;389;48.710;9.392;2023-06-22T15:35:40;8.93;;;3.97;;
813;SDS011;389;48.710;9.392;2023-06-22T15:38:06;5.60;;;3.88;;
813;SDS011;389;48.710;9.392;2023-06-22T15:40:32;9.85;;;4.18;;
813;SDS011;389;48.710;9.392;2023-06-22T15:42:57;8.50;;;4.03;;
813;SDS011;389;48.710;9.392;2023-06-22T15:45:23;4.63;;;3.72;;
813;SDS011;389;48.710;9.392;2023-06-22T15:47:50;6.35;;;3.60;;